Cincinnati Municipal Airport Lunken Field
KLUK : now visible

Airfield :











YOU CAN JOIN US ON...

 
LOGIN :

Register | Disclaimer

   EN    FR    IT 

 









Legend :    VFR   Marginal VFR   IFR   Intensive IFR   Very Intensive IFR
Visi :
Ceiling :
>= 8 km
>= 3000ft
5 to 8 km
1000 to 3000 ft
1500m to 5 km
500 to 1000 ft
800 to 1500m
200 to 500 ft
< 800m
< 200 ft
Symbols :   Thunderstorms  Fog  Heavy snow  Heavy precipitations  Wind > 20 kt






- Airport Elevation : 483 ft
- IATA code : LUK


KLUK - Cincinnati Municipal Lunken Field

CURRENT METAR :
  • 181053Z AUTO 16004KT 10SM -RA OVC041 01/M01 A3009 RMK AO2 SLP194 P0006 T00111006

EXPIRED METARs :
  • 180953Z AUTO 00000KT 5SM -RA BR OVC044 01/M02 A3015 RMK AO2 SLP213 P0010 T00061017
  • 180853Z AUTO 00000KT 10SM -RA OVC048 01/M02 A3019 RMK AO2 SLP227 P0003 60005 T00111022 58043

TAF KLUK
Valid from the 18 at 06:00 until the 19 at 06:00 UTC


180551Z 1806/1906 14009KT P6SM -RA OVC080
FM181000 15011KT P6SM -RA OVC040
FM181300 18012KT 5SM -RA BR OVC040
FM181500 19015G25KT 3SM -RA OVC018
FM181800 22022G33KT P6SM VCSH OVC015
FM182100 24020G28KT P6SM OVC018



MET'MAP, your aeronautical weather chart ! - Copyright ORBIFLY December 2007 - Disclaimer

ORBIFLY MET'MAP TEAM :

Programming & Development : Alexandra Zaïnal
Concept & original design : Baudouin d'Aumeries
Assistance for programming : Marc-Olivier Méhu
Technical & hardware support : Manuel Goepfert

Contact : metmap@orbifly.com




SOURCES & CREDITS :

   NOAA       Earth
Advisory